createdAt,value
2023-01-23T00:00:47.671Z,6.42
2023-01-23T00:03:14.418Z,6.41
2023-01-23T00:05:41.169Z,6.40
2023-01-23T00:08:08.079Z,6.42
2023-01-23T00:10:34.813Z,6.52
2023-01-23T00:13:01.502Z,6.56
2023-01-23T00:15:28.281Z,6.46
2023-01-23T00:17:55.121Z,6.45
2023-01-23T00:20:21.975Z,6.40
2023-01-23T00:22:48.819Z,6.45
2023-01-23T00:25:15.640Z,6.46
2023-01-23T00:27:42.418Z,6.47
2023-01-23T00:30:09.908Z,6.45
2023-01-23T00:32:36.613Z,6.49
2023-01-23T00:35:04.080Z,6.53
2023-01-23T00:37:30.833Z,6.59
2023-01-23T00:39:57.571Z,6.61
2023-01-23T00:42:24.337Z,6.60
2023-01-23T00:44:51.274Z,6.63
2023-01-23T00:47:17.967Z,6.64
2023-01-23T00:49:44.676Z,6.59
2023-01-23T00:52:11.362Z,6.53
2023-01-23T00:54:39.330Z,6.56
2023-01-23T00:57:06.320Z,6.54
2023-01-23T00:59:33.174Z,6.57
2023-01-23T01:01:59.986Z,6.62
2023-01-23T01:04:26.905Z,6.64
2023-01-23T01:06:54.288Z,6.63
2023-01-23T01:09:22.933Z,6.65
2023-01-23T01:11:49.628Z,6.66
2023-01-23T01:14:16.526Z,6.69
2023-01-23T01:16:45.477Z,6.68
2023-01-23T01:19:14.437Z,6.69
2023-01-23T01:21:42.256Z,6.70
2023-01-23T01:24:09.714Z,6.75
2023-01-23T01:26:36.837Z,6.76
2023-01-23T01:29:03.755Z,6.76
2023-01-23T01:31:30.682Z,6.78
2023-01-23T01:33:57.483Z,6.81
2023-01-23T01:36:24.623Z,6.81
2023-01-23T01:38:51.432Z,6.77
2023-01-23T01:41:18.239Z,6.73
2023-01-23T01:43:45.944Z,6.71
2023-01-23T01:46:18.736Z,6.71
2023-01-23T01:49:14.338Z,6.69
2023-01-23T01:51:44.108Z,6.68
2023-01-23T01:54:22.899Z,6.70
2023-01-23T01:56:58.602Z,6.61
2023-01-23T01:59:28.437Z,6.60
2023-01-23T02:02:05.240Z,6.64
2023-01-23T02:04:36.371Z,6.60
2023-01-23T02:07:07.942Z,6.58
2023-01-23T02:09:35.387Z,6.60
2023-01-23T02:12:02.780Z,6.68
2023-01-23T02:14:29.664Z,6.67
2023-01-23T02:17:01.019Z,6.66
2023-01-23T02:19:30.731Z,6.63
2023-01-23T02:22:11.581Z,6.61
2023-01-23T02:25:01.547Z,6.57
2023-01-23T02:27:28.410Z,6.58
2023-01-23T02:29:56.334Z,6.56
2023-01-23T02:32:26.916Z,6.51
2023-01-23T02:34:57.320Z,6.43
2023-01-23T02:37:29.863Z,6.51
2023-01-23T02:39:58.553Z,6.52
2023-01-23T02:42:26.056Z,6.43
2023-01-23T02:44:55.795Z,6.35
2023-01-23T02:47:23.080Z,6.36
2023-01-23T02:49:49.881Z,6.38
2023-01-23T02:52:16.701Z,6.33
2023-01-23T02:54:43.418Z,6.26
2023-01-23T02:57:10.409Z,6.32
2023-01-23T02:59:57.085Z,6.30
2023-01-23T03:02:25.321Z,6.23
2023-01-23T03:04:52.078Z,6.29
2023-01-23T03:07:20.271Z,6.32
2023-01-23T03:09:48.709Z,6.17
2023-01-23T03:12:16.026Z,6.33
2023-01-23T03:14:42.762Z,6.22
2023-01-23T03:17:11.066Z,6.22
2023-01-23T03:19:39.037Z,6.33
2023-01-23T03:22:05.922Z,6.39
2023-01-23T03:24:34.216Z,6.43
2023-01-23T03:27:01.584Z,6.39
2023-01-23T03:29:54.399Z,6.34
2023-01-23T03:32:22.458Z,6.32
2023-01-23T03:34:49.364Z,6.38
2023-01-23T03:37:17.507Z,6.34
2023-01-23T03:40:06.591Z,6.21
2023-01-23T03:42:34.699Z,6.17
2023-01-23T03:45:03.345Z,6.22
2023-01-23T03:47:33.367Z,6.26
2023-01-23T03:50:00.237Z,6.20
2023-01-23T03:52:27.402Z,6.17
2023-01-23T03:54:55.923Z,6.23
2023-01-23T03:57:22.721Z,6.17
2023-01-23T04:00:04.377Z,6.15
2023-01-23T04:02:51.385Z,6.14
2023-01-23T04:05:18.697Z,6.03
2023-01-23T04:07:45.374Z,6.04
2023-01-23T04:10:17.043Z,6.10
2023-01-23T04:12:48.357Z,6.18
2023-01-23T04:15:15.155Z,6.24
2023-01-23T04:17:42.480Z,6.23
2023-01-23T04:20:12.361Z,6.18
2023-01-23T04:22:41.431Z,6.18
2023-01-23T04:25:08.545Z,6.12
2023-01-23T04:27:35.717Z,6.13
2023-01-23T04:30:03.596Z,6.09
2023-01-23T04:32:30.384Z,6.02
2023-01-23T04:34:57.184Z,6.16
2023-01-23T04:37:25.350Z,6.15
2023-01-23T04:39:52.101Z,6.15
2023-01-23T04:42:19.231Z,6.16
2023-01-23T04:45:07.804Z,5.81
2023-01-23T04:47:52.758Z,5.82
2023-01-23T04:50:20.228Z,5.85
2023-01-23T04:52:47.147Z,5.94
2023-01-23T04:55:14.214Z,5.93
2023-01-23T04:57:42.867Z,6.00
2023-01-23T05:00:17.532Z,5.89
2023-01-23T05:02:46.807Z,5.81
2023-01-23T05:05:14.072Z,5.86
2023-01-23T05:07:41.813Z,5.83
2023-01-23T05:10:12.704Z,5.94
2023-01-23T05:12:39.915Z,6.03
2023-01-23T05:15:07.942Z,5.97
2023-01-23T05:17:37.723Z,5.95
2023-01-23T05:20:05.960Z,6.10
2023-01-23T05:22:33.615Z,6.06
2023-01-23T05:25:00.604Z,6.11
2023-01-23T05:27:29.630Z,6.15
2023-01-23T05:29:56.382Z,6.22
2023-01-23T05:32:25.688Z,6.18
2023-01-23T05:35:18.701Z,6.22
2023-01-23T05:37:50.133Z,6.18
2023-01-23T05:40:19.796Z,6.12
2023-01-23T05:43:14.943Z,6.07
2023-01-23T05:46:01.580Z,6.09
2023-01-23T05:48:38.444Z,6.11
2023-01-23T05:51:09.476Z,6.07
2023-01-23T05:53:36.377Z,5.93
2023-01-23T05:56:07.943Z,6.01
2023-01-23T05:58:41.532Z,5.78
2023-01-23T06:01:23.003Z,5.88
2023-01-23T06:04:16.307Z,5.74
2023-01-23T06:06:54.170Z,5.48
2023-01-23T06:09:20.877Z,5.65
2023-01-23T06:11:47.783Z,5.53
2023-01-23T06:14:15.146Z,5.34
2023-01-23T06:16:44.923Z,5.10
2023-01-23T06:19:12.399Z,5.28
2023-01-23T06:21:40.170Z,5.40
2023-01-23T06:24:07.276Z,5.41
2023-01-23T06:26:34.100Z,5.26
2023-01-23T06:29:01.359Z,5.42
2023-01-23T06:31:30.415Z,5.25
2023-01-23T06:33:59.808Z,5.21
2023-01-23T06:36:31.607Z,5.40
2023-01-23T06:38:58.785Z,5.44
2023-01-23T06:41:32.429Z,5.51
2023-01-23T06:44:02.961Z,5.50
2023-01-23T06:46:29.923Z,5.56
2023-01-23T06:48:57.623Z,5.60
2023-01-23T06:51:24.865Z,5.54
2023-01-23T06:53:52.123Z,5.55
2023-01-23T06:56:19.102Z,5.49
2023-01-23T06:58:47.111Z,5.24
2023-01-23T07:01:33.136Z,5.42
2023-01-23T07:04:15.046Z,5.50
2023-01-23T07:06:43.466Z,5.49
2023-01-23T07:09:12.049Z,5.60
2023-01-23T07:11:39.702Z,5.68
2023-01-23T07:14:06.967Z,5.47
2023-01-23T07:16:35.891Z,5.63
2023-01-23T07:19:05.303Z,5.53
2023-01-23T07:21:33.877Z,5.50
2023-01-23T07:24:00.662Z,5.49
2023-01-23T07:26:27.899Z,5.63
2023-01-23T07:28:54.800Z,5.68
2023-01-23T07:31:21.704Z,5.67
2023-01-23T07:33:48.676Z,5.59
2023-01-23T07:36:15.422Z,5.62
2023-01-23T07:38:42.262Z,5.54
2023-01-23T07:41:09.055Z,5.64
2023-01-23T07:43:35.848Z,5.61
2023-01-23T07:46:03.482Z,5.84
2023-01-23T07:48:30.202Z,5.71
2023-01-23T07:50:57.152Z,5.78
2023-01-23T07:53:23.881Z,5.73
2023-01-23T07:55:50.563Z,5.72
2023-01-23T07:58:17.295Z,5.75
2023-01-23T08:00:44.438Z,5.86
2023-01-23T08:03:11.333Z,5.87
2023-01-23T08:05:38.152Z,5.73
2023-01-23T08:08:13.061Z,5.69
2023-01-23T08:10:41.372Z,5.66
2023-01-23T08:13:08.330Z,5.64
2023-01-23T08:15:37.669Z,5.71
2023-01-23T08:18:05.108Z,5.83
2023-01-23T08:20:31.830Z,5.72
2023-01-23T08:22:59.399Z,5.84
2023-01-23T08:25:26.227Z,5.91
2023-01-23T08:27:52.977Z,6.07
2023-01-23T08:30:20.060Z,6.12
2023-01-23T08:32:47.113Z,6.19
2023-01-23T08:35:13.987Z,6.24
2023-01-23T08:37:42.146Z,6.35
2023-01-23T08:40:09.662Z,6.40
2023-01-23T08:42:36.333Z,6.32
2023-01-23T08:45:03.612Z,6.40
2023-01-23T08:47:30.695Z,6.28
2023-01-23T08:49:57.393Z,6.37
2023-01-23T08:52:24.212Z,6.27
2023-01-23T08:54:50.888Z,6.47
2023-01-23T08:57:17.613Z,6.52
2023-01-23T08:59:44.371Z,6.65
2023-01-23T09:02:12.883Z,6.79
2023-01-23T09:04:39.656Z,7.25
2023-01-23T09:07:06.347Z,7.56
2023-01-23T09:09:33.071Z,7.88
2023-01-23T09:11:59.775Z,7.97
2023-01-23T09:14:26.464Z,7.95
2023-01-23T09:16:53.266Z,7.69
2023-01-23T09:19:20.085Z,7.85
2023-01-23T09:21:46.888Z,7.66
2023-01-23T09:24:13.659Z,7.57
2023-01-23T09:26:40.504Z,7.54
2023-01-23T09:29:07.176Z,7.35
2023-01-23T09:31:33.933Z,7.55
2023-01-23T09:34:00.712Z,7.33
2023-01-23T09:36:41.694Z,7.44
2023-01-23T09:39:09.430Z,7.36
2023-01-23T09:41:36.572Z,7.31
2023-01-23T09:44:11.236Z,7.19
2023-01-23T09:46:46.287Z,7.07
2023-01-23T09:49:25.301Z,6.80
2023-01-23T09:52:00.968Z,6.77
2023-01-23T09:54:44.424Z,6.66
2023-01-23T09:57:18.830Z,6.54
2023-01-23T09:59:59.824Z,6.63
2023-01-23T10:02:27.938Z,6.74
2023-01-23T10:04:56.484Z,6.96
2023-01-23T10:07:51.092Z,6.80
2023-01-23T10:10:44.763Z,6.87
2023-01-23T10:13:19.888Z,7.09
2023-01-23T10:16:08.182Z,7.13
2023-01-23T10:18:47.911Z,7.06
2023-01-23T10:21:29.179Z,6.84
2023-01-23T10:24:15.543Z,7.08
2023-01-23T10:26:45.012Z,7.00
2023-01-23T10:29:17.764Z,7.06
2023-01-23T10:31:51.731Z,7.11
2023-01-23T10:34:27.608Z,7.04
2023-01-23T10:37:21.781Z,7.03
2023-01-23T10:39:59.870Z,7.18
2023-01-23T10:42:27.510Z,6.74
2023-01-23T10:44:54.408Z,6.78
2023-01-23T10:47:32.795Z,6.84
2023-01-23T10:50:00.819Z,6.85
2023-01-23T10:52:38.384Z,7.00
2023-01-23T10:55:27.066Z,6.94
2023-01-23T10:57:55.846Z,7.02
2023-01-23T11:00:45.964Z,7.03
2023-01-23T11:03:29.004Z,7.27
2023-01-23T11:06:01.770Z,7.42
2023-01-23T11:08:31.247Z,7.33
2023-01-23T11:11:19.733Z,7.38
2023-01-23T11:13:48.549Z,7.03
2023-01-23T11:16:22.318Z,7.00
2023-01-23T11:18:55.984Z,7.11
2023-01-23T11:21:24.474Z,7.04
2023-01-23T11:24:18.860Z,6.78
2023-01-23T11:26:47.599Z,6.74
2023-01-23T11:29:25.843Z,6.76
2023-01-23T11:32:06.144Z,6.77
2023-01-23T11:35:17.973Z,6.97
2023-01-23T11:37:44.726Z,6.88
2023-01-23T11:40:15.195Z,6.59
2023-01-23T11:42:43.332Z,6.71
2023-01-23T11:45:26.258Z,6.96
2023-01-23T11:48:09.183Z,6.85
2023-01-23T11:51:02.086Z,6.64
2023-01-23T11:53:43.809Z,6.91
2023-01-23T11:56:32.529Z,6.78
2023-01-23T11:59:05.041Z,6.79
2023-01-23T12:01:40.567Z,6.52
2023-01-23T12:04:28.914Z,6.30
2023-01-23T12:07:17.989Z,6.31
2023-01-23T12:10:03.145Z,6.26
2023-01-23T12:13:07.224Z,6.54
2023-01-23T12:15:50.638Z,6.70
2023-01-23T12:18:54.932Z,6.76
2023-01-23T12:21:44.343Z,6.68
2023-01-23T12:24:49.862Z,6.66
2023-01-23T12:27:20.325Z,6.63
2023-01-23T12:30:11.761Z,6.74
2023-01-23T12:32:56.829Z,6.51
2023-01-23T12:35:50.690Z,6.71
2023-01-23T12:38:35.634Z,6.53
2023-01-23T12:41:22.616Z,6.34
2023-01-23T12:44:15.764Z,6.51
2023-01-23T12:46:51.381Z,6.51
2023-01-23T12:49:47.695Z,6.68
2023-01-23T12:52:32.920Z,6.70
2023-01-23T12:55:16.222Z,6.18
2023-01-23T12:57:59.331Z,6.51
2023-01-23T13:00:55.406Z,6.24
2023-01-23T13:03:45.490Z,6.49
2023-01-23T13:06:24.986Z,6.47
2023-01-23T13:09:18.504Z,6.47
2023-01-23T13:12:00.494Z,6.67
2023-01-23T13:14:34.738Z,6.53
2023-01-23T13:17:48.768Z,6.70
2023-01-23T13:20:46.160Z,6.15
2023-01-23T13:23:19.909Z,5.97
2023-01-23T13:25:47.351Z,6.29
2023-01-23T13:28:45.288Z,6.47
2023-01-23T13:31:37.158Z,6.52
2023-01-23T13:34:24.841Z,6.32
2023-01-23T13:36:53.119Z,6.35
2023-01-23T13:39:26.181Z,6.56
2023-01-23T13:42:14.066Z,6.56
2023-01-23T13:45:27.600Z,6.61
2023-01-23T14:22:35.329Z,6.94
2023-01-23T14:25:02.406Z,6.73
2023-01-23T14:27:31.637Z,7.01
2023-01-23T14:30:01.145Z,7.04
2023-01-23T14:32:33.772Z,7.00
2023-01-23T14:35:01.545Z,7.02
2023-01-23T14:37:38.272Z,6.72
2023-01-23T14:40:18.237Z,6.84
2023-01-23T14:43:09.330Z,6.86
2023-01-23T14:45:37.251Z,7.02
2023-01-23T14:48:13.833Z,7.10
2023-01-23T14:50:41.147Z,7.14
2023-01-23T14:53:16.583Z,7.16
2023-01-23T14:55:49.656Z,7.18
2023-01-23T14:58:23.847Z,7.05
2023-01-23T15:00:53.276Z,6.82
2023-01-23T15:03:36.430Z,6.82
2023-01-23T15:06:08.080Z,6.74
2023-01-23T15:08:36.648Z,6.81
2023-01-23T15:11:06.407Z,6.72
2023-01-23T15:13:33.108Z,6.80
2023-01-23T15:16:02.197Z,6.70
2023-01-23T15:18:31.365Z,6.67
2023-01-23T15:21:04.516Z,6.69
2023-01-23T15:23:37.292Z,6.72
2023-01-23T15:26:31.872Z,6.61
2023-01-23T15:29:19.721Z,6.51
2023-01-23T15:31:50.234Z,6.49
2023-01-23T15:34:17.008Z,6.66
2023-01-23T15:36:57.901Z,6.63
2023-01-23T15:39:30.957Z,6.72
2023-01-23T15:42:23.257Z,6.74
2023-01-23T15:44:50.137Z,6.59
2023-01-23T15:47:17.020Z,6.70
2023-01-23T15:49:43.797Z,6.60
2023-01-23T15:52:21.586Z,6.72
2023-01-23T15:55:00.084Z,6.66
2023-01-23T15:57:27.497Z,6.47
2023-01-23T15:59:54.333Z,6.55
2023-01-23T16:02:33.143Z,6.36
2023-01-23T16:05:01.685Z,6.44
2023-01-23T16:07:44.749Z,6.54
2023-01-23T16:10:19.815Z,6.52
2023-01-23T16:12:49.637Z,6.53
2023-01-23T16:15:20.152Z,6.44
2023-01-23T16:17:47.895Z,6.35
2023-01-23T16:20:23.403Z,6.49
2023-01-23T16:22:53.110Z,6.44
2023-01-23T16:25:43.093Z,6.44
2023-01-23T16:28:22.783Z,6.43
2023-01-23T16:30:50.749Z,6.34
2023-01-23T16:33:17.932Z,6.35
2023-01-23T16:35:45.332Z,6.36
2023-01-23T16:38:20.494Z,6.38
2023-01-23T16:40:47.346Z,6.20
2023-01-23T16:43:14.013Z,6.51
2023-01-23T16:45:40.774Z,6.51
2023-01-23T16:48:10.866Z,6.52
2023-01-23T16:50:51.252Z,6.52
2023-01-23T16:53:24.448Z,6.36
2023-01-23T16:55:53.974Z,6.35
2023-01-23T16:58:27.794Z,6.52
2023-01-23T17:01:01.139Z,6.55
2023-01-23T17:03:32.659Z,6.58
2023-01-23T17:05:59.941Z,6.51
2023-01-23T17:08:27.240Z,6.61
2023-01-23T17:11:00.382Z,6.56
2023-01-23T17:13:30.924Z,6.52
2023-01-23T17:15:57.765Z,6.50
2023-01-23T17:18:31.103Z,6.50
2023-01-23T17:20:58.798Z,6.47
2023-01-23T17:23:26.127Z,6.42
2023-01-23T17:26:00.286Z,6.36
2023-01-23T17:28:28.631Z,6.32
2023-01-23T17:30:57.866Z,6.29
2023-01-23T17:33:28.649Z,6.28
2023-01-23T17:35:56.057Z,6.29
2023-01-23T17:38:25.802Z,6.23
2023-01-23T17:40:53.464Z,6.25
2023-01-23T17:43:21.040Z,6.19
2023-01-23T17:45:50.133Z,6.20
2023-01-23T17:48:27.183Z,6.16
2023-01-23T17:50:54.157Z,6.17
2023-01-23T17:53:21.455Z,6.14
2023-01-23T17:55:52.682Z,6.13
2023-01-23T17:58:20.558Z,6.09
2023-01-23T18:00:52.239Z,6.08
2023-01-23T18:03:24.560Z,5.94
2023-01-23T18:05:51.241Z,5.96
2023-01-23T18:08:21.532Z,5.93
2023-01-23T18:10:52.275Z,5.91
2023-01-23T18:13:37.017Z,5.91
2023-01-23T18:16:13.350Z,5.87
2023-01-23T18:18:41.833Z,5.80
2023-01-23T18:21:17.768Z,5.75
2023-01-23T18:23:45.339Z,5.76
2023-01-23T18:26:53.842Z,5.68
2023-01-23T18:29:40.712Z,5.63
2023-01-23T18:32:33.217Z,5.62
2023-01-23T18:35:12.061Z,5.62
2023-01-23T18:38:06.753Z,5.65
2023-01-23T18:41:05.261Z,5.65
2023-01-23T18:43:40.871Z,5.61
2023-01-23T18:46:20.232Z,5.56
2023-01-23T18:48:49.376Z,5.60
2023-01-23T18:51:39.528Z,5.53
2023-01-23T18:54:12.144Z,5.48
2023-01-23T18:56:55.853Z,5.29
2023-01-23T18:59:49.534Z,5.39
2023-01-23T19:02:35.042Z,5.30
2023-01-23T19:05:23.767Z,5.27
2023-01-23T19:07:51.022Z,5.33
2023-01-23T19:10:23.200Z,5.30
2023-01-23T19:13:02.568Z,5.39
2023-01-23T19:15:44.571Z,5.36
2023-01-23T19:18:42.207Z,5.30
2023-01-23T19:21:16.673Z,5.12
2023-01-23T19:23:55.919Z,5.37
2023-01-23T19:26:23.629Z,5.18
2023-01-23T19:28:50.762Z,5.29
2023-01-23T19:31:22.522Z,5.29
2023-01-23T19:33:49.716Z,5.22
2023-01-23T19:36:16.678Z,5.30
2023-01-23T19:38:43.931Z,5.29
2023-01-23T19:41:21.785Z,5.00
2023-01-23T19:43:53.947Z,5.02
2023-01-23T19:46:24.287Z,5.26
2023-01-23T19:48:51.495Z,5.02
2023-01-23T19:51:19.962Z,5.14
2023-01-23T19:53:46.956Z,5.33
2023-01-23T19:56:17.887Z,5.20
2023-01-23T19:58:45.190Z,4.82
2023-01-23T20:01:37.031Z,5.06
2023-01-23T20:04:04.740Z,5.08
2023-01-23T20:06:34.282Z,5.18
2023-01-23T20:09:01.164Z,5.09
2023-01-23T20:11:27.850Z,5.07
2023-01-23T20:13:54.539Z,5.12
2023-01-23T20:16:25.043Z,4.93
2023-01-23T20:18:53.605Z,4.75
2023-01-23T20:21:22.809Z,4.78
2023-01-23T20:23:50.137Z,4.78
2023-01-23T20:26:18.981Z,4.78
2023-01-23T20:28:55.665Z,5.21
2023-01-23T20:31:22.803Z,4.94
2023-01-23T20:33:49.873Z,4.99
2023-01-23T20:36:16.698Z,5.08
2023-01-23T20:38:43.603Z,5.25
2023-01-23T20:41:13.099Z,5.02
2023-01-23T20:43:42.745Z,4.93
2023-01-23T20:46:11.277Z,5.17
2023-01-23T20:48:39.997Z,5.10
2023-01-23T20:51:09.647Z,5.11
2023-01-23T20:53:39.483Z,5.23
2023-01-23T20:56:13.796Z,5.32
2023-01-23T20:59:02.395Z,5.48
2023-01-23T21:01:52.687Z,5.45
2023-01-23T21:04:20.500Z,5.40
2023-01-23T21:06:47.338Z,5.27
2023-01-23T21:09:14.552Z,5.17
2023-01-23T21:11:41.245Z,5.58
2023-01-23T21:14:08.776Z,5.37
2023-01-23T21:16:35.826Z,5.69
2023-01-23T21:19:02.977Z,5.23
2023-01-23T21:21:29.860Z,5.51
2023-01-23T21:23:56.624Z,5.55
2023-01-23T21:26:26.205Z,5.39
2023-01-23T21:28:55.023Z,5.41
2023-01-23T21:31:25.244Z,5.54
2023-01-23T21:33:52.532Z,5.25
2023-01-23T21:36:22.513Z,5.58
2023-01-23T21:38:51.285Z,5.70
2023-01-23T21:41:18.749Z,5.62
2023-01-23T21:43:45.764Z,5.59
2023-01-23T21:46:13.097Z,5.68
2023-01-23T21:48:39.805Z,5.63
2023-01-23T21:51:13.721Z,5.83
2023-01-23T21:53:42.290Z,5.60
2023-01-23T21:56:10.534Z,5.58
2023-01-23T21:58:37.635Z,5.70
2023-01-23T22:01:26.031Z,5.65
2023-01-23T22:03:53.086Z,5.83
2023-01-23T22:06:19.902Z,5.78
2023-01-23T22:08:47.057Z,5.89
2023-01-23T22:11:14.263Z,5.99
2023-01-23T22:13:41.114Z,5.89
2023-01-23T22:16:08.130Z,6.02
2023-01-23T22:18:34.900Z,6.00
2023-01-23T22:21:04.363Z,5.84
2023-01-23T22:23:31.828Z,5.92
2023-01-23T22:26:01.202Z,5.91
2023-01-23T22:28:28.476Z,5.92
2023-01-23T22:30:56.104Z,6.07
2023-01-23T22:33:24.051Z,6.03
2023-01-23T22:35:52.671Z,6.13
2023-01-23T22:38:19.375Z,6.08
2023-01-23T22:40:46.112Z,6.06
2023-01-23T22:43:12.787Z,6.17
2023-01-23T22:45:39.533Z,6.17
2023-01-23T22:48:06.560Z,6.20
2023-01-23T22:50:33.267Z,5.93
2023-01-23T22:53:00.051Z,6.09
2023-01-23T22:55:26.819Z,6.13
2023-01-23T22:57:53.525Z,6.10
2023-01-23T23:00:20.668Z,6.03
2023-01-23T23:02:47.412Z,5.93
2023-01-23T23:05:14.401Z,5.77
2023-01-23T23:07:41.279Z,5.71
2023-01-23T23:10:09.688Z,5.47
2023-01-23T23:12:36.434Z,5.80
2023-01-23T23:15:03.537Z,5.85
2023-01-23T23:17:30.440Z,5.97
2023-01-23T23:19:57.153Z,6.07
2023-01-23T23:22:23.827Z,6.02
2023-01-23T23:24:50.498Z,5.94
2023-01-23T23:27:17.176Z,6.07
2023-01-23T23:29:43.897Z,5.97
2023-01-23T23:32:10.671Z,6.07
2023-01-23T23:34:37.519Z,6.16
2023-01-23T23:37:04.294Z,6.15
2023-01-23T23:39:31.038Z,5.85
2023-01-23T23:41:58.568Z,6.01
2023-01-23T23:44:25.350Z,6.07
2023-01-23T23:46:52.080Z,6.21
2023-01-23T23:49:18.857Z,6.16
2023-01-23T23:51:45.616Z,5.99
2023-01-23T23:54:12.425Z,5.95
2023-01-23T23:56:39.317Z,5.88
2023-01-23T23:59:06.151Z,5.63
